Skip to main content

NOAA/GLERL Met Station at Chicago, IL

Previous 3 Hours (2 minute increments)
See also Previous 5 Days (top of hour)
Jump down to Data
Switch to [English][Metric]
Zoom: Click and drag, Pan: shift-click and drag, Unzoom: double-click, Unzoom All




See also 1-day windrose plot


NOAA/GLERL Met Station at Chicago, IL

Previous 3 Hours (2 minute increments)
See also Previous 5 Days (top of hour only)
Jump up to Graphs
Switch to [English][Metric]
                  Wind  Wind  Wind   Air   Dew   Rel
                   Spd   Gst   Dir  Temp    Pt   Hum
YYYY-MM-DD   CST   m/s   m/s   deg     C     C     %
2020-02-19 18:06   5.8   6.3   309  -3.6 -16.9  35.1
2020-02-19 18:04   5.8   6.3   318  -3.6 -16.5  36.5
2020-02-19 18:02   6.3   6.9   315  -3.6 -16.3  37.0
2020-02-19 18:00   5.9   6.6   307  -3.5 -15.4  39.5
2020-02-19 17:58   5.8   6.1   306  -3.6 -17.0  34.8
2020-02-19 17:56   5.7   6.7   309  -3.5 -16.8  35.2
2020-02-19 17:54   5.5   6.1   309  -3.5 -17.1  34.3
2020-02-19 17:52   6.1   6.7   314  -3.4 -16.2  36.7
2020-02-19 17:50   5.6   6.4   324  -3.3 -15.7  38.0
2020-02-19 17:48   5.2   6.0   327  -3.4 -16.6  35.6
2020-02-19 17:46   5.8   6.3   324  -3.3 -16.2  36.5
2020-02-19 17:44   5.7   6.3   320  -3.2 -14.9  40.3
2020-02-19 17:42   5.7   6.2   319  -3.3 -15.8  37.6
2020-02-19 17:40   5.9   6.8   337  -3.4 -16.2  36.7
2020-02-19 17:38   5.7   6.4   334  -3.4 -16.8  35.0
2020-02-19 17:36   5.9   7.0   325  -3.3 -15.9  37.4
2020-02-19 17:34   5.7   6.2   323  -3.3 -16.4  36.0
2020-02-19 17:32   6.0   6.4   321  -3.2 -17.9  31.4
2020-02-19 17:30   5.6   6.4   321  -3.2 -16.9  34.1
2020-02-19 17:28   5.0   5.8   318  -3.1 -16.5  35.2
2020-02-19 17:26   5.8   6.6   312  -3.2 -18.3  30.5
2020-02-19 17:24   5.9   6.9   320  -3.1 -15.3  38.8
2020-02-19 17:22   6.1   6.8   336  -3.3 -16.1  36.8
2020-02-19 17:20   6.2   7.2   338  -3.2 -15.3  39.0
2020-02-19 17:18   6.1   7.3   347  -3.3 -16.5  35.7
2020-02-19 17:16   6.2   7.4   340  -3.3 -16.4  36.0
2020-02-19 17:14   5.9   6.6   333  -3.2 -16.4  35.6
2020-02-19 17:12   6.6   7.0   333  -3.2 -15.7  37.8
2020-02-19 17:10   6.1   6.7   342  -3.3 -16.0  37.0
2020-02-19 17:08   6.5   7.1   351  -3.3 -16.5  35.7
2020-02-19 17:06   5.9   6.8   346  -3.2 -16.0  36.8
2020-02-19 17:04   5.3   5.9   352  -3.3 -16.4  35.9
2020-02-19 17:02   4.5   5.4     3  -3.4 -12.9  47.9
2020-02-19 17:00   3.9   4.5    14  -3.5 -14.1  44.0
2020-02-19 16:58   4.0   4.7     6  -3.6 -14.0  44.6
2020-02-19 16:56   4.6   5.4     8  -3.7 -14.7  42.5
2020-02-19 16:54   3.9   4.3     1  -3.7 -14.8  42.0
2020-02-19 16:52   4.2   4.9     2  -3.8 -15.6  39.9
2020-02-19 16:50   4.8   5.3     4  -3.7 -15.3  40.4
2020-02-19 16:48   4.4   5.1     3  -3.7 -15.0  41.6
2020-02-19 16:46   4.2   5.1   357  -3.7 -14.8  42.2
2020-02-19 16:44   4.7   5.3     3  -3.8 -15.4  40.6
2020-02-19 16:42   4.4   5.0    12  -3.8 -14.4  43.9
2020-02-19 16:40   4.4   5.1    10  -3.8 -15.0  41.9
2020-02-19 16:38   4.2   5.4     2  -3.8 -14.9  42.0
2020-02-19 16:36   4.1   4.9     1  -3.8 -14.9  42.1
2020-02-19 16:34   4.4   5.1    12  -3.9 -14.8  42.9
2020-02-19 16:32   4.5   5.0    12  -3.8 -14.3  44.4
2020-02-19 16:30   4.3   5.4    17  -3.9 -14.6  43.6
2020-02-19 16:28   3.8   4.3    27  -3.9 -14.6  43.6
2020-02-19 16:26   4.2   5.2    14  -3.9 -14.8  42.8
2020-02-19 16:24   4.4   5.3    11  -3.8 -13.7  46.3
2020-02-19 16:22   3.6   4.3     4  -3.8 -14.3  44.4
2020-02-19 16:20   3.6   4.0     0  -3.8 -14.3  44.3
2020-02-19 16:18   3.7   4.2     9  -3.9 -13.8  46.3
2020-02-19 16:16   3.6   4.4    24  -3.9 -12.7  50.8
2020-02-19 16:14   3.5   4.0    17  -4.0 -13.5  48.0
2020-02-19 16:12   3.6   4.0    16  -4.0 -13.9  46.2
2020-02-19 16:10   3.8   4.6    15  -4.0 -13.7  47.1
2020-02-19 16:08   4.1   4.8    13  -4.0 -13.5  47.7
2020-02-19 16:06   4.6   5.1    17  -4.0 -14.1  45.6
2020-02-19 16:04   4.2   4.8    15  -4.0 -13.6  47.4
2020-02-19 16:02   4.2   4.8     8  -4.0 -14.3  45.0
2020-02-19 16:00   3.8   4.6    11  -4.0 -14.6  43.8
2020-02-19 15:58   4.3   4.9    10  -4.0 -14.3  44.9
2020-02-19 15:56   4.4   5.2    15  -4.1 -14.5  44.6
2020-02-19 15:54   4.5   5.1    19  -4.1 -14.1  45.8
2020-02-19 15:52   3.9   4.7    23  -4.1 -13.9  46.6
2020-02-19 15:50   3.8   4.1    25  -4.2 -14.4  45.1
2020-02-19 15:48   4.3   5.0    18  -4.1 -13.7  47.4
2020-02-19 15:46   3.6   4.1    27  -4.1 -13.0  50.1
2020-02-19 15:44   3.9   4.4    21  -4.1 -13.0  50.2
2020-02-19 15:42   3.5   4.2    14  -4.3 -13.7  48.1
2020-02-19 15:40   3.7   4.3    17  -4.2 -13.5  48.7
2020-02-19 15:38   3.6   4.4    23  -4.4 -14.4  45.7
2020-02-19 15:36   4.1   4.9    20  -4.4 -14.2  46.7
2020-02-19 15:34   3.5   4.1    27  -4.4 -14.0  47.2
2020-02-19 15:32   3.5   4.1    18  -4.3 -13.6  48.6
2020-02-19 15:30   3.8   4.6    21  -4.4 -13.5  49.2
2020-02-19 15:28   3.4   3.9    17  -4.4 -14.2  46.6
2020-02-19 15:26   3.6   4.1    19  -4.4 -13.5  49.3
2020-02-19 15:24   3.4   4.4    21  -4.3 -13.5  48.8
2020-02-19 15:22   3.3   4.0    16  -4.3 -13.1  50.4
2020-02-19 15:20   3.9   4.2    15  -4.4 -13.8  48.0
2020-02-19 15:18   3.8   4.6    21  -4.4 -13.6  49.1
2020-02-19 15:16   3.9   4.3    26  -4.4 -13.7  48.5
2020-02-19 15:14   4.0   4.6    18  -4.4 -14.2  46.5
2020-02-19 15:12   3.4   3.6    25  -4.4 -14.3  46.4
2020-02-19 15:10   3.7   4.3    18  -4.4 -14.3  46.4
2020-02-19 15:08   4.0   4.4    12  -4.3 -13.0  50.8
2020-02-19 15:06   4.0   4.6    19  -4.5 -13.7  49.0